Terminal Aerodrome Forecast
Issued by NWS Paducah, KY

Home | Current Version | Previous Version | Text Only | Print | Product List | Glossary On
Versions: 1 2 3 4 5 6 7 8 9 10 11 12 13 14 15 16 17
000
FTUS43 KPAH 140500
TAFEVV
TAF
KEVV 140520Z 1406/1506 21010G18KT P6SM -SHRA OVC060
      TEMPO 1406/1410 VRB20G35KT 2SM TSRA BR BKN030CB
     FM141100 21012G22KT P6SM VCSH OVC050
     FM141600 26015G25KT P6SM OVC025
     FM142000 30015G25KT 4SM -RA BR OVC015=

USA.gov is the U.S. government's official web portal to all federal, state and local government web resources and services.